Aviation Digital Data Service (ADDS)

Output produced by METARs form (1618 UTC 30 October 2020)
found at http://www.aviationweather.gov/metar/data/
 
KBNA 301553Z 35009KT 10SM OVC023 09/03 A3031 RMK AO2 SLP263 T00940033
KBNA 301326Z 3013/3112 35010KT P6SM OVC025 
     FM301700 36010KT P6SM SCT040 
     FM310000 02005KT P6SM SKC